createdAt,value
2023-02-12T00:01:16.527Z,-1.06
2023-02-12T00:03:43.478Z,-1.24
2023-02-12T00:06:13.502Z,-1.08
2023-02-12T00:08:41.723Z,-1.11
2023-02-12T00:11:14.665Z,-1.21
2023-02-12T00:13:41.610Z,-1.09
2023-02-12T00:16:11.405Z,-1.08
2023-02-12T00:18:38.393Z,-1.16
2023-02-12T00:21:08.881Z,-1.01
2023-02-12T00:23:36.857Z,-1.07
2023-02-12T00:26:08.736Z,-1.02
2023-02-12T00:28:36.407Z,-0.79
2023-02-12T00:31:09.953Z,-0.93
2023-02-12T00:33:37.299Z,-0.80
2023-02-12T00:36:05.328Z,-0.67
2023-02-12T00:38:32.471Z,-0.89
2023-02-12T00:40:59.552Z,-0.90
2023-02-12T00:43:26.659Z,-0.82
2023-02-12T00:45:54.246Z,-1.00
2023-02-12T00:48:21.374Z,-0.94
2023-02-12T00:50:50.008Z,-0.68
2023-02-12T00:53:17.291Z,-0.96
2023-02-12T00:55:44.188Z,-0.94
2023-02-12T00:58:11.735Z,-0.77
2023-02-12T01:00:38.978Z,-0.98
2023-02-12T01:03:06.321Z,-0.95
2023-02-12T01:05:33.921Z,-0.84
2023-02-12T01:08:00.909Z,-1.04
2023-02-12T01:10:28.409Z,-1.05
2023-02-12T01:12:55.829Z,-0.89
2023-02-12T01:15:22.790Z,-0.96
2023-02-12T01:17:53.015Z,-1.02
2023-02-12T01:20:21.397Z,-0.95
2023-02-12T01:22:48.883Z,-0.91
2023-02-12T01:25:17.207Z,-1.04
2023-02-12T01:27:45.124Z,-0.85
2023-02-12T01:30:14.100Z,-1.01
2023-02-12T01:32:41.091Z,-0.97
2023-02-12T01:35:10.088Z,-0.89
2023-02-12T01:37:38.502Z,-1.01
2023-02-12T01:40:07.183Z,-0.93
2023-02-12T01:42:34.187Z,-0.86
2023-02-12T01:45:13.949Z,-1.08
2023-02-12T01:47:43.008Z,-1.04
2023-02-12T01:50:19.662Z,-1.03
2023-02-12T01:52:52.018Z,-1.27
2023-02-12T01:55:19.701Z,-1.23
2023-02-12T01:57:48.380Z,-1.28
2023-02-12T02:00:20.157Z,-1.37
2023-02-12T02:02:50.712Z,-1.29
2023-02-12T02:05:28.173Z,-1.48
2023-02-12T02:07:55.158Z,-1.52
2023-02-12T02:10:22.069Z,-1.35
2023-02-12T02:13:07.391Z,-1.60
2023-02-12T02:15:36.839Z,-1.74
2023-02-12T02:18:23.258Z,-1.64
2023-02-12T02:21:15.086Z,-1.90
2023-02-12T02:24:06.655Z,-1.80
2023-02-12T02:26:58.919Z,-1.93
2023-02-12T02:29:37.923Z,-1.92
2023-02-12T02:32:19.117Z,-1.86
2023-02-12T02:35:14.113Z,-1.94
2023-02-12T02:37:49.244Z,-1.84
2023-02-12T02:40:33.406Z,-1.80
2023-02-12T02:43:09.769Z,-1.62
2023-02-12T02:45:59.789Z,-1.33
2023-02-12T02:48:33.947Z,-1.46
2023-02-12T02:51:06.564Z,-1.38
2023-02-12T02:53:57.575Z,-1.51
2023-02-12T02:56:28.853Z,-1.49
2023-02-12T02:59:01.660Z,-1.43
2023-02-12T03:01:36.714Z,-1.47
2023-02-12T03:04:11.019Z,-1.54
2023-02-12T03:07:01.609Z,-1.50
2023-02-12T03:09:39.438Z,-1.57
2023-02-12T03:12:14.346Z,-1.49
2023-02-12T03:28:15.718Z,-2.11
2023-02-12T03:30:45.668Z,-1.99
2023-02-12T03:33:36.128Z,-1.83
2023-02-12T03:36:13.959Z,-1.73
2023-02-12T03:38:53.290Z,-1.81
2023-02-12T03:41:45.757Z,-1.60
2023-02-12T03:44:22.752Z,-1.80
2023-02-12T03:47:16.157Z,-1.66
2023-02-12T03:49:59.685Z,-1.65
2023-02-12T03:52:27.267Z,-1.76
2023-02-12T03:54:54.263Z,-1.63
2023-02-12T03:57:25.176Z,-1.74
2023-02-12T03:59:52.100Z,-1.88
2023-02-12T04:02:19.746Z,-1.66
2023-02-12T04:04:47.794Z,-1.84
2023-02-12T04:07:15.557Z,-1.68
2023-02-12T04:09:42.528Z,-1.40
2023-02-12T04:12:47.650Z,-1.77
2023-02-12T04:15:42.149Z,-1.61
2023-02-12T04:18:14.843Z,-1.64
2023-02-12T04:20:48.133Z,-1.78
2023-02-12T04:23:18.059Z,-1.71
2023-02-12T04:26:14.390Z,-1.89
2023-02-12T04:28:56.435Z,-1.84
2023-02-12T04:31:32.281Z,-1.75
2023-02-12T04:34:26.808Z,-1.78
2023-02-12T04:36:59.693Z,-1.68
2023-02-12T04:39:30.846Z,-1.73
2023-02-12T04:42:01.923Z,-1.70
2023-02-12T04:44:31.557Z,-1.58
2023-02-12T04:46:58.689Z,-1.66
2023-02-12T04:49:26.646Z,-1.60
2023-02-12T04:51:53.519Z,-1.49
2023-02-12T04:54:22.312Z,-1.64
2023-02-12T04:56:50.065Z,-1.58
2023-02-12T04:59:17.627Z,-1.54
2023-02-12T05:01:45.738Z,-1.56
2023-02-12T05:04:15.255Z,-1.47
2023-02-12T05:06:43.458Z,-1.40
2023-02-12T05:09:16.936Z,-1.41
2023-02-12T05:11:44.083Z,-1.33
2023-02-12T05:14:11.302Z,-1.35
2023-02-12T05:16:38.307Z,-1.32
2023-02-12T05:19:05.209Z,-1.24
2023-02-12T05:21:32.193Z,-1.20
2023-02-12T05:23:59.057Z,-1.25
2023-02-12T05:26:26.018Z,-1.11
2023-02-12T05:28:52.891Z,-1.12
2023-02-12T05:31:21.647Z,-1.10
2023-02-12T05:33:49.860Z,-0.96
2023-02-12T05:36:20.695Z,-1.03
2023-02-12T05:38:48.625Z,-1.01
2023-02-12T05:41:21.456Z,-0.80
2023-02-12T05:43:49.970Z,-0.99
2023-02-12T05:46:18.753Z,-0.97
2023-02-12T05:48:46.236Z,-0.84
2023-02-12T05:51:16.089Z,-0.95
2023-02-12T05:53:43.326Z,-0.84
2023-02-12T05:56:22.169Z,-0.57
2023-02-12T05:58:54.448Z,-0.78
2023-02-12T06:01:25.570Z,-0.61
2023-02-12T06:03:52.505Z,-0.51
2023-02-12T06:06:19.420Z,-0.64
2023-02-12T06:08:50.022Z,-0.29
2023-02-12T06:11:17.923Z,-0.15
2023-02-12T06:13:45.156Z,-0.31
2023-02-12T06:16:21.596Z,-0.14
2023-02-12T06:18:49.310Z,-0.04
2023-02-12T06:21:17.357Z,-0.27
2023-02-12T06:23:44.412Z,0.17
2023-02-12T06:26:11.313Z,0.25
2023-02-12T06:28:38.308Z,0.27
2023-02-12T06:31:05.991Z,0.80
2023-02-12T06:33:35.661Z,0.95
2023-02-12T06:36:04.666Z,0.93
2023-02-12T06:38:31.511Z,1.18
2023-02-12T06:41:02.237Z,0.87
2023-02-12T06:43:29.081Z,0.85
2023-02-12T06:45:56.428Z,1.12
2023-02-12T06:48:23.658Z,1.04
2023-02-12T06:50:50.475Z,1.30
2023-02-12T06:53:17.450Z,2.55
2023-02-12T06:55:44.254Z,2.22
2023-02-12T06:58:11.090Z,2.13
2023-02-12T07:00:37.930Z,3.17
2023-02-12T07:03:04.748Z,3.88
2023-02-12T07:05:32.833Z,2.34
2023-02-12T07:07:59.693Z,2.98
2023-02-12T07:10:26.780Z,3.72
2023-02-12T07:12:53.650Z,2.25
2023-02-12T07:15:20.471Z,2.49
2023-02-12T07:17:47.366Z,3.40
2023-02-12T07:20:14.325Z,2.70
2023-02-12T07:22:41.185Z,2.47
2023-02-12T07:25:08.215Z,2.73
2023-02-12T07:27:39.035Z,2.37
2023-02-12T07:30:06.917Z,2.20
2023-02-12T07:32:34.757Z,2.65
2023-02-12T07:35:01.833Z,2.42
2023-02-12T07:37:28.862Z,2.21
2023-02-12T07:39:55.781Z,2.51
2023-02-12T07:42:22.601Z,2.71
2023-02-12T07:44:50.570Z,2.29
2023-02-12T07:47:17.670Z,2.85
2023-02-12T07:49:44.576Z,3.40
2023-02-12T07:52:13.329Z,2.59
2023-02-12T07:54:40.556Z,3.33
2023-02-12T07:57:07.492Z,3.74
2023-02-12T07:59:34.401Z,3.28
2023-02-12T08:02:01.424Z,3.38
2023-02-12T08:04:28.651Z,4.24
2023-02-12T08:06:56.810Z,4.75
2023-02-12T08:09:27.424Z,3.94
2023-02-12T08:11:54.576Z,4.34
2023-02-12T08:14:22.619Z,5.42
2023-02-12T08:16:51.119Z,5.19
2023-02-12T08:19:21.907Z,4.22
2023-02-12T08:21:53.338Z,5.07
2023-02-12T08:24:22.296Z,5.89
2023-02-12T08:26:49.820Z,5.50
2023-02-12T08:29:19.853Z,4.68
2023-02-12T08:31:48.700Z,5.37
2023-02-12T08:34:21.147Z,5.71
2023-02-12T08:36:50.436Z,4.91
2023-02-12T08:39:18.958Z,4.10
2023-02-12T08:41:46.760Z,4.68
2023-02-12T08:44:14.096Z,4.94
2023-02-12T08:46:46.906Z,4.20
2023-02-12T08:49:16.765Z,4.99
2023-02-12T08:51:48.787Z,6.32
2023-02-12T08:54:21.352Z,5.81
2023-02-12T08:56:48.302Z,6.50
2023-02-12T08:59:15.962Z,7.85
2023-02-12T09:01:43.885Z,8.19
2023-02-12T09:04:21.634Z,8.08
2023-02-12T09:06:50.105Z,6.15
2023-02-12T09:09:17.653Z,6.50
2023-02-12T09:11:44.929Z,6.86
2023-02-12T09:14:15.441Z,5.71
2023-02-12T09:16:42.512Z,5.68
2023-02-12T09:19:12.932Z,5.93
2023-02-12T09:21:39.770Z,5.96
2023-02-12T09:24:06.758Z,5.01
2023-02-12T09:26:33.638Z,5.65
2023-02-12T09:29:02.235Z,5.81
2023-02-12T09:31:31.089Z,5.33
2023-02-12T09:34:00.305Z,5.08
2023-02-12T09:36:27.611Z,6.10
2023-02-12T09:38:54.567Z,6.40
2023-02-12T09:41:27.301Z,6.91
2023-02-12T09:44:05.032Z,5.40
2023-02-12T09:46:53.372Z,5.91
2023-02-12T09:49:59.436Z,6.27
2023-02-12T09:52:29.103Z,5.66
2023-02-12T09:54:58.310Z,5.45
2023-02-12T09:57:34.755Z,5.71
2023-02-12T10:00:16.639Z,5.56
2023-02-12T10:02:43.619Z,4.95
2023-02-12T10:05:20.676Z,5.09
2023-02-12T10:08:03.602Z,5.25
2023-02-12T10:10:45.534Z,4.89
2023-02-12T10:13:40.167Z,4.67
2023-02-12T10:16:28.806Z,4.69
2023-02-12T10:19:17.366Z,4.33
2023-02-12T10:21:44.262Z,4.50
2023-02-12T10:24:33.613Z,4.76
2023-02-12T10:27:24.736Z,4.57
2023-02-12T10:29:52.686Z,4.35
2023-02-12T10:32:25.875Z,4.61
2023-02-12T10:34:56.361Z,4.97
2023-02-12T10:37:38.342Z,4.42
2023-02-12T10:40:17.557Z,4.63
2023-02-12T10:42:50.903Z,4.95
2023-02-12T10:45:25.861Z,5.37
2023-02-12T10:48:02.070Z,4.62
2023-02-12T10:50:41.686Z,5.01
2023-02-12T10:53:17.690Z,5.34
2023-02-12T10:55:44.703Z,4.97
2023-02-12T10:58:24.473Z,4.87
2023-02-12T11:00:59.690Z,5.14
2023-02-12T11:03:34.971Z,5.41
2023-02-12T11:06:16.720Z,4.72
2023-02-12T11:08:44.912Z,5.17
2023-02-12T11:11:14.891Z,5.64
2023-02-12T11:13:46.651Z,5.63
2023-02-12T11:16:13.735Z,5.01
2023-02-12T11:18:40.635Z,5.28
2023-02-12T11:21:12.608Z,5.69
2023-02-12T11:23:42.940Z,5.30
2023-02-12T11:26:19.088Z,5.36
2023-02-12T11:28:59.838Z,5.81
2023-02-12T11:31:35.184Z,5.51
2023-02-12T11:34:07.884Z,5.47
2023-02-12T11:36:44.021Z,5.71
2023-02-12T11:39:23.178Z,5.62
2023-02-12T11:41:59.563Z,5.35
2023-02-12T11:44:38.304Z,5.76
2023-02-12T11:47:17.330Z,5.96
2023-02-12T11:50:05.908Z,5.33
2023-02-12T11:52:35.626Z,5.56
2023-02-12T11:55:07.389Z,5.42
2023-02-12T11:57:46.968Z,5.09
2023-02-12T12:00:19.574Z,5.54
2023-02-12T12:03:25.329Z,5.62
2023-02-12T12:05:57.586Z,5.14
2023-02-12T12:08:44.437Z,5.36
2023-02-12T12:11:36.170Z,5.00
2023-02-12T12:14:29.830Z,4.47
2023-02-12T12:17:15.286Z,4.72
2023-02-12T12:20:17.528Z,4.56
2023-02-12T12:22:56.172Z,4.33
2023-02-12T12:25:31.010Z,4.46
2023-02-12T12:28:33.273Z,4.43
2023-02-12T12:31:24.449Z,4.39
2023-02-12T12:34:13.507Z,4.73
2023-02-12T12:36:58.311Z,4.54
2023-02-12T12:39:43.361Z,4.50
2023-02-12T12:42:32.046Z,4.76
2023-02-12T12:45:12.611Z,4.51
2023-02-12T12:47:45.258Z,4.46
2023-02-12T12:50:31.556Z,4.77
2023-02-12T12:53:12.354Z,4.70
2023-02-12T12:55:57.896Z,4.48
2023-02-12T12:59:00.034Z,4.67
2023-02-12T13:02:05.698Z,4.50
2023-02-12T13:04:51.210Z,4.44
2023-02-12T13:07:39.698Z,4.62
2023-02-12T13:10:34.246Z,4.60
2023-02-12T13:13:29.696Z,4.29
2023-02-12T13:16:02.538Z,4.75
2023-02-12T13:18:47.928Z,4.66
2023-02-12T13:21:59.003Z,4.20
2023-02-12T13:24:56.555Z,4.51
2023-02-12T13:27:27.059Z,4.32
2023-02-12T13:30:14.162Z,4.30
2023-02-12T13:32:49.901Z,4.43
2023-02-12T13:35:21.689Z,4.38
2023-02-12T13:37:58.252Z,4.37
2023-02-12T13:40:28.099Z,4.56
2023-02-12T13:42:58.582Z,4.54
2023-02-12T13:45:47.278Z,3.99
2023-02-12T13:48:16.810Z,4.32
2023-02-12T13:51:14.635Z,4.50
2023-02-12T13:53:55.248Z,3.97
2023-02-12T13:56:34.710Z,4.02
2023-02-12T13:59:01.800Z,4.16
2023-02-12T14:01:36.548Z,3.78
2023-02-12T14:04:24.566Z,3.88
2023-02-12T14:07:01.776Z,4.19
2023-02-12T14:09:41.239Z,3.70
2023-02-12T14:12:28.526Z,3.81
2023-02-12T14:15:09.652Z,4.03
2023-02-12T14:17:36.798Z,3.69
2023-02-12T14:20:25.374Z,3.78
2023-02-12T14:22:52.248Z,3.85
2023-02-12T14:25:24.965Z,3.49
2023-02-12T14:27:57.399Z,3.63
2023-02-12T14:30:40.235Z,3.85
2023-02-12T14:33:07.265Z,3.43
2023-02-12T14:35:45.776Z,3.59
2023-02-12T14:38:12.597Z,3.76
2023-02-12T14:40:45.433Z,3.45
2023-02-12T14:43:32.852Z,3.56
2023-02-12T14:46:22.665Z,3.73
2023-02-12T14:49:00.759Z,3.46
2023-02-12T14:51:41.248Z,3.38
2023-02-12T14:54:27.794Z,3.48
2023-02-12T14:56:58.086Z,3.21
2023-02-12T14:59:26.944Z,3.27
2023-02-12T15:01:57.577Z,3.30
2023-02-12T15:04:35.599Z,3.07
2023-02-12T15:07:11.674Z,3.08
2023-02-12T15:09:58.202Z,3.15
2023-02-12T15:12:32.851Z,3.09
2023-02-12T15:15:30.985Z,3.02
2023-02-12T15:30:01.981Z,2.63
2023-02-12T15:32:29.989Z,2.71
2023-02-12T15:34:57.200Z,2.76
2023-02-12T15:37:30.671Z,2.75
2023-02-12T15:40:00.972Z,2.77
2023-02-12T15:42:38.027Z,2.77
2023-02-12T15:45:08.113Z,2.73
2023-02-12T15:47:37.625Z,2.81
2023-02-12T15:50:04.783Z,2.72
2023-02-12T15:52:36.060Z,2.63
2023-02-12T15:55:05.137Z,2.74
2023-02-12T15:57:32.925Z,2.70
2023-02-12T16:00:11.191Z,2.54
2023-02-12T16:02:41.378Z,2.50
2023-02-12T16:05:12.258Z,2.56
2023-02-12T16:07:39.713Z,2.45
2023-02-12T16:10:07.275Z,2.51
2023-02-12T16:12:37.698Z,2.57
2023-02-12T16:15:05.451Z,2.48
2023-02-12T16:17:35.718Z,2.33
2023-02-12T16:20:04.880Z,2.41
2023-02-12T16:22:36.457Z,2.35
2023-02-12T16:25:13.910Z,2.28
2023-02-12T16:27:41.170Z,2.30
2023-02-12T16:30:26.813Z,2.25
2023-02-12T16:32:54.490Z,2.23
2023-02-12T16:35:21.214Z,2.12
2023-02-12T16:37:50.558Z,2.16
2023-02-12T16:40:17.540Z,2.20
2023-02-12T16:42:47.410Z,2.25
2023-02-12T16:45:26.840Z,2.31
2023-02-12T16:48:16.171Z,2.27
2023-02-12T16:50:56.166Z,2.22
2023-02-12T16:53:30.472Z,2.13
2023-02-12T16:55:59.023Z,2.12
2023-02-12T16:58:26.501Z,2.21
2023-02-12T17:00:55.962Z,2.22
2023-02-12T17:03:24.609Z,2.30
2023-02-12T17:05:52.498Z,2.29
2023-02-12T17:08:22.312Z,2.19
2023-02-12T17:10:49.330Z,2.16
2023-02-12T17:13:16.991Z,2.20
2023-02-12T17:15:51.102Z,2.13
2023-02-12T17:18:18.278Z,2.13
2023-02-12T17:20:51.942Z,2.07
2023-02-12T17:23:18.794Z,2.09
2023-02-12T17:25:45.707Z,2.31
2023-02-12T17:28:12.652Z,2.21
2023-02-12T17:30:39.588Z,2.13
2023-02-12T17:33:06.519Z,2.23
2023-02-12T17:35:33.337Z,2.19
2023-02-12T17:38:00.252Z,2.11
2023-02-12T17:40:27.100Z,2.13
2023-02-12T17:42:54.071Z,2.04
2023-02-12T17:45:20.997Z,1.89
2023-02-12T17:47:47.902Z,1.87
2023-02-12T17:50:16.775Z,1.98
2023-02-12T17:52:44.111Z,1.82
2023-02-12T17:55:13.864Z,1.77
2023-02-12T17:57:41.234Z,1.83
2023-02-12T18:00:15.084Z,1.78
2023-02-12T18:02:41.935Z,1.69
2023-02-12T18:05:09.145Z,1.69
2023-02-12T18:07:37.733Z,1.57
2023-02-12T18:10:05.983Z,1.61
2023-02-12T18:12:33.810Z,1.67
2023-02-12T18:15:03.472Z,1.61
2023-02-12T18:17:30.927Z,1.55
2023-02-12T18:19:58.049Z,1.59
2023-02-12T18:22:24.961Z,1.47
2023-02-12T18:24:52.232Z,1.48
2023-02-12T18:27:19.060Z,1.51
2023-02-12T18:29:46.079Z,1.46
2023-02-12T18:32:16.014Z,1.36
2023-02-12T18:34:43.890Z,1.32
2023-02-12T18:37:12.701Z,1.27
2023-02-12T18:39:39.653Z,1.28
2023-02-12T18:42:07.630Z,1.30
2023-02-12T18:44:34.791Z,1.31
2023-02-12T18:47:01.829Z,1.21
2023-02-12T18:49:28.789Z,1.23
2023-02-12T18:51:55.656Z,1.25
2023-02-12T18:54:22.915Z,1.11
2023-02-12T18:56:52.063Z,1.13
2023-02-12T18:59:19.982Z,1.12
2023-02-12T19:01:48.323Z,1.11
2023-02-12T19:04:16.274Z,1.06
2023-02-12T19:06:49.669Z,1.11
2023-02-12T19:09:20.305Z,1.12
2023-02-12T19:11:49.351Z,1.08
2023-02-12T19:14:18.675Z,1.16
2023-02-12T19:16:45.955Z,1.07
2023-02-12T19:19:14.508Z,1.08
2023-02-12T19:21:41.618Z,1.10
2023-02-12T19:24:11.452Z,1.10
2023-02-12T19:26:38.460Z,1.08
2023-02-12T19:29:05.570Z,1.18
2023-02-12T19:31:38.209Z,1.15
2023-02-12T19:34:08.593Z,1.06
2023-02-12T19:36:36.799Z,1.05
2023-02-12T19:39:05.027Z,1.08
2023-02-12T19:41:33.008Z,0.91
2023-02-12T19:44:01.592Z,0.98
2023-02-12T19:46:31.081Z,1.00
2023-02-12T19:49:00.309Z,0.92
2023-02-12T19:51:29.583Z,0.93
2023-02-12T19:54:01.457Z,0.99
2023-02-12T19:56:28.807Z,0.92
2023-02-12T19:58:57.614Z,0.90
2023-02-12T20:01:25.017Z,1.00
2023-02-12T20:03:52.012Z,1.01
2023-02-12T20:06:24.844Z,0.91
2023-02-12T20:08:52.269Z,0.93
2023-02-12T20:11:22.296Z,0.90
2023-02-12T20:13:49.622Z,0.88
2023-02-12T20:16:21.152Z,0.90
2023-02-12T20:18:51.049Z,0.87
2023-02-12T20:21:27.473Z,0.79
2023-02-12T20:23:55.137Z,0.73
2023-02-12T20:26:22.757Z,0.90
2023-02-12T20:28:50.658Z,0.75
2023-02-12T20:31:19.175Z,0.73
2023-02-12T20:33:46.699Z,0.81
2023-02-12T20:36:15.479Z,0.59
2023-02-12T20:38:44.817Z,0.71
2023-02-12T20:41:12.337Z,0.76
2023-02-12T20:43:39.255Z,0.52
2023-02-12T20:46:08.438Z,0.59
2023-02-12T20:48:36.828Z,0.44
2023-02-12T20:51:06.508Z,0.36
2023-02-12T20:53:33.742Z,0.31
2023-02-12T20:56:04.577Z,0.40
2023-02-12T20:58:32.038Z,0.27
2023-02-12T21:01:10.793Z,0.27
2023-02-12T21:03:37.877Z,0.27
2023-02-12T21:06:05.374Z,0.26
2023-02-12T21:08:32.476Z,0.24
2023-02-12T21:11:04.900Z,0.39
2023-02-12T21:13:31.917Z,0.34
2023-02-12T21:16:17.756Z,0.33
2023-02-12T21:18:48.800Z,0.25
2023-02-12T21:21:29.111Z,0.09
2023-02-12T21:23:58.387Z,0.17
2023-02-12T21:26:27.436Z,0.13
2023-02-12T21:28:57.208Z,0.01
2023-02-12T21:31:29.516Z,0.15
2023-02-12T21:33:57.898Z,0.06
2023-02-12T21:36:33.461Z,-0.03
2023-02-12T21:39:01.073Z,-0.05
2023-02-12T21:41:30.630Z,-0.01
2023-02-12T21:44:00.208Z,-0.13
2023-02-12T21:46:28.639Z,0.03
2023-02-12T21:48:56.502Z,-0.05
2023-02-12T21:51:24.834Z,-0.15
2023-02-12T21:53:54.081Z,-0.10
2023-02-12T21:56:21.933Z,-0.14
2023-02-12T21:58:50.998Z,-0.23
2023-02-12T22:01:23.269Z,-0.22
2023-02-12T22:03:50.603Z,-0.16
2023-02-12T22:06:19.307Z,-0.18
2023-02-12T22:08:46.880Z,-0.22
2023-02-12T22:11:14.521Z,-0.16
2023-02-12T22:13:41.783Z,-0.25
2023-02-12T22:16:11.735Z,-0.20
2023-02-12T22:18:40.039Z,-0.18
2023-02-12T22:21:10.131Z,-0.23
2023-02-12T22:23:38.807Z,-0.17
2023-02-12T22:26:13.060Z,-0.23
2023-02-12T22:28:45.558Z,-0.33
2023-02-12T22:31:14.722Z,-0.35
2023-02-12T22:33:41.561Z,-0.31
2023-02-12T22:36:09.974Z,-0.48
2023-02-12T22:38:38.642Z,-0.37
2023-02-12T22:41:06.975Z,-0.39
2023-02-12T22:43:35.963Z,-0.49
2023-02-12T22:46:02.835Z,-0.50
2023-02-12T22:48:29.773Z,-0.48
2023-02-12T22:50:58.361Z,-0.52
2023-02-12T22:53:26.449Z,-0.58
2023-02-12T22:55:53.338Z,-0.58
2023-02-12T22:58:20.254Z,-0.62
2023-02-12T23:00:47.147Z,-0.62
2023-02-12T23:03:13.990Z,-0.60
2023-02-12T23:05:40.855Z,-0.75
2023-02-12T23:08:07.673Z,-0.71
2023-02-12T23:10:34.552Z,-0.71
2023-02-12T23:13:03.065Z,-0.79
2023-02-12T23:15:30.766Z,-0.76
2023-02-12T23:17:57.596Z,-0.65
2023-02-12T23:20:24.569Z,-0.90
2023-02-12T23:22:51.498Z,-0.89
2023-02-12T23:25:18.404Z,-0.79
2023-02-12T23:27:45.241Z,-1.00
2023-02-12T23:30:12.656Z,-0.97
2023-02-12T23:32:39.485Z,-0.93
2023-02-12T23:35:06.663Z,-1.13
2023-02-12T23:37:33.558Z,-1.04
2023-02-12T23:40:00.424Z,-1.00
2023-02-12T23:42:27.314Z,-1.11
2023-02-12T23:44:56.201Z,-1.02
2023-02-12T23:47:23.684Z,-1.06
2023-02-12T23:49:50.573Z,-1.10
2023-02-12T23:52:17.407Z,-1.11
2023-02-12T23:54:44.255Z,-1.14
2023-02-12T23:57:11.115Z,-1.26
2023-02-12T23:59:37.874Z,-1.25
